createdAt,value
2024-02-07T00:01:27.644Z,12.92
2024-02-07T00:04:14.985Z,12.94
2024-02-07T00:07:02.343Z,12.97
2024-02-07T00:09:49.570Z,13.00
2024-02-07T00:12:36.793Z,13.02
2024-02-07T00:15:24.645Z,12.98
2024-02-07T00:18:11.825Z,13.00
2024-02-07T00:20:59.214Z,13.00
2024-02-07T00:23:46.505Z,13.05
2024-02-07T00:26:37.133Z,13.05
2024-02-07T00:29:24.378Z,13.04
2024-02-07T00:32:11.584Z,13.08
2024-02-07T00:34:58.874Z,13.17
2024-02-07T00:37:46.054Z,13.21
2024-02-07T00:40:34.443Z,13.27
2024-02-07T00:43:21.766Z,13.33
2024-02-07T00:46:08.984Z,13.32
2024-02-07T00:48:57.686Z,13.19
2024-02-07T00:51:45.141Z,12.87
2024-02-07T00:54:32.392Z,12.80
2024-02-07T00:57:19.566Z,12.41
2024-02-07T01:00:08.657Z,12.25
2024-02-07T01:02:56.443Z,11.94
2024-02-07T01:05:43.746Z,11.71
2024-02-07T01:08:30.956Z,11.47
2024-02-07T01:11:18.093Z,11.25
2024-02-07T01:14:05.300Z,11.08
2024-02-07T01:16:52.506Z,10.90
2024-02-07T01:19:40.207Z,10.78
2024-02-07T01:22:27.455Z,10.63
2024-02-07T01:25:14.872Z,10.37
2024-02-07T01:28:02.057Z,10.20
2024-02-07T01:30:49.249Z,10.19
2024-02-07T01:33:36.919Z,10.09
2024-02-07T01:36:25.578Z,10.08
2024-02-07T01:39:12.782Z,10.03
2024-02-07T01:42:00.539Z,9.95
2024-02-07T01:44:48.004Z,9.89
2024-02-07T01:47:35.276Z,9.85
2024-02-07T01:50:23.073Z,9.84
2024-02-07T01:53:12.350Z,9.70
2024-02-07T01:56:01.765Z,9.64
2024-02-07T01:58:49.385Z,9.53
2024-02-07T02:01:40.183Z,9.47
2024-02-07T02:04:28.126Z,9.36
2024-02-07T02:07:15.547Z,9.24
2024-02-07T02:10:02.874Z,9.22
2024-02-07T02:12:50.849Z,9.15
2024-02-07T02:15:38.085Z,9.11
2024-02-07T02:18:25.332Z,9.10
2024-02-07T02:21:20.603Z,9.09
2024-02-07T02:24:45.262Z,9.07
2024-02-07T02:28:32.480Z,9.02
2024-02-07T02:31:21.381Z,8.98
2024-02-07T02:34:09.035Z,8.95
2024-02-07T02:36:56.755Z,8.95
2024-02-07T02:39:44.322Z,9.00
2024-02-07T02:42:31.483Z,9.00
2024-02-07T02:45:18.912Z,8.95
2024-02-07T02:48:08.732Z,8.95
2024-02-07T02:50:57.142Z,8.88
2024-02-07T02:53:45.129Z,8.80
2024-02-07T02:56:32.572Z,8.76
2024-02-07T02:59:21.764Z,8.72
2024-02-07T03:02:11.790Z,8.73
2024-02-07T03:05:01.998Z,8.68
2024-02-07T03:08:06.957Z,8.66
2024-02-07T03:10:54.984Z,8.64
2024-02-07T03:13:42.306Z,8.61
2024-02-07T03:16:30.206Z,8.57
2024-02-07T03:19:17.652Z,8.61
2024-02-07T03:22:04.981Z,8.59
2024-02-07T03:24:57.220Z,8.55
2024-02-07T03:27:52.071Z,8.52
2024-02-07T03:30:39.342Z,8.46
2024-02-07T03:33:26.733Z,8.45
2024-02-07T03:36:14.211Z,8.49
2024-02-07T03:39:01.615Z,8.42
2024-02-07T03:41:49.597Z,8.44
2024-02-07T03:44:38.243Z,8.38
2024-02-07T03:47:26.216Z,8.39
2024-02-07T03:50:18.081Z,8.29
2024-02-07T03:53:06.280Z,8.24
2024-02-07T03:55:53.571Z,8.17
2024-02-07T03:58:42.498Z,8.17
2024-02-07T04:01:31.123Z,8.17
2024-02-07T04:04:21.635Z,8.16
2024-02-07T04:07:09.155Z,8.07
2024-02-07T04:09:56.493Z,8.10
2024-02-07T04:12:43.568Z,8.09
2024-02-07T04:15:49.160Z,8.12
2024-02-07T04:18:55.111Z,8.04
2024-02-07T04:22:00.963Z,8.02
2024-02-07T04:25:06.922Z,8.01
2024-02-07T04:28:12.790Z,8.04
2024-02-07T04:31:18.721Z,8.02
2024-02-07T04:34:24.322Z,8.09
2024-02-07T04:37:29.954Z,8.13
2024-02-07T04:40:35.778Z,8.15
2024-02-07T04:43:41.605Z,8.14
2024-02-07T04:46:47.570Z,8.04
2024-02-07T04:49:53.415Z,8.03
2024-02-07T04:52:59.235Z,8.13
2024-02-07T04:56:05.035Z,8.15
2024-02-07T04:59:11.145Z,8.22
2024-02-07T05:02:16.793Z,8.20
2024-02-07T05:05:22.693Z,8.12
2024-02-07T05:08:28.305Z,8.13
2024-02-07T05:11:34.265Z,8.07
2024-02-07T05:14:40.025Z,7.97
2024-02-07T05:17:27.332Z,7.95
2024-02-07T05:20:14.799Z,8.02
2024-02-07T05:23:02.108Z,8.06
2024-02-07T05:25:49.624Z,8.17
2024-02-07T05:28:38.223Z,8.20
2024-02-07T05:31:25.962Z,8.30
2024-02-07T05:34:13.509Z,8.33
2024-02-07T05:37:02.715Z,8.38
2024-02-07T05:39:49.846Z,8.39
2024-02-07T05:42:37.019Z,8.43
2024-02-07T05:45:24.226Z,8.43
2024-02-07T05:48:11.471Z,8.44
2024-02-07T05:50:58.643Z,8.42
2024-02-07T05:53:45.909Z,8.37
2024-02-07T05:56:33.143Z,8.40
2024-02-07T05:59:21.529Z,8.41
2024-02-07T06:02:08.772Z,8.42
2024-02-07T06:04:58.565Z,8.39
2024-02-07T06:07:46.506Z,8.43
2024-02-07T06:10:35.420Z,8.37
2024-02-07T06:13:23.042Z,8.42
2024-02-07T06:16:10.281Z,8.37
2024-02-07T06:18:57.970Z,8.41
2024-02-07T06:21:45.160Z,8.36
2024-02-07T06:24:33.117Z,8.43
2024-02-07T06:27:20.312Z,8.43
2024-02-07T06:30:08.294Z,8.41
2024-02-07T06:32:55.581Z,8.39
2024-02-07T06:35:43.569Z,8.36
2024-02-07T06:38:30.842Z,8.37
2024-02-07T06:41:18.032Z,8.35
2024-02-07T06:44:05.654Z,8.36
2024-02-07T06:46:53.039Z,8.36
2024-02-07T06:49:41.303Z,8.38
2024-02-07T06:52:28.652Z,8.40
2024-02-07T06:55:16.007Z,8.40
2024-02-07T06:58:03.290Z,8.42
2024-02-07T07:00:50.621Z,8.50
2024-02-07T07:03:37.903Z,8.45
2024-02-07T07:06:25.187Z,8.48
2024-02-07T07:09:12.664Z,8.46
2024-02-07T07:11:59.809Z,8.43
2024-02-07T07:14:47.239Z,8.45
2024-02-07T07:17:34.438Z,8.47
2024-02-07T07:20:21.712Z,8.45
2024-02-07T07:23:15.687Z,8.48
2024-02-07T07:26:04.311Z,8.45
2024-02-07T07:28:55.454Z,8.45
2024-02-07T07:31:42.789Z,8.43
2024-02-07T07:34:30.052Z,8.47
2024-02-07T07:37:19.292Z,8.46
2024-02-07T07:40:07.422Z,8.38
2024-02-07T07:42:54.628Z,8.43
2024-02-07T07:45:41.901Z,8.40
2024-02-07T07:48:29.163Z,8.36
2024-02-07T07:51:21.447Z,8.38
2024-02-07T07:54:08.817Z,8.42
2024-02-07T07:56:56.089Z,8.41
2024-02-07T07:59:43.244Z,8.41
2024-02-07T08:02:32.078Z,8.42
2024-02-07T08:05:19.474Z,8.45
2024-02-07T08:08:08.717Z,8.53
2024-02-07T08:10:56.183Z,8.56
2024-02-07T08:13:43.739Z,8.40
2024-02-07T08:16:31.044Z,8.41
2024-02-07T08:19:18.400Z,8.42
2024-02-07T08:22:05.630Z,8.51
2024-02-07T08:24:53.467Z,8.53
2024-02-07T08:27:40.646Z,8.62
2024-02-07T08:30:27.897Z,8.61
2024-02-07T08:33:15.353Z,8.69
2024-02-07T08:36:03.695Z,8.73
2024-02-07T08:38:50.963Z,8.74
2024-02-07T08:41:39.462Z,8.76
2024-02-07T08:44:26.696Z,8.90
2024-02-07T08:47:14.069Z,8.92
2024-02-07T08:50:01.225Z,9.00
2024-02-07T08:52:48.562Z,9.02
2024-02-07T08:55:35.866Z,9.12
2024-02-07T08:58:23.103Z,9.20
2024-02-07T09:01:10.467Z,9.18
2024-02-07T09:03:57.777Z,9.27
2024-02-07T09:06:46.584Z,9.30
2024-02-07T09:09:33.836Z,9.35
2024-02-07T09:12:20.952Z,9.37
2024-02-07T09:15:08.605Z,9.40
2024-02-07T09:17:55.824Z,9.41
2024-02-07T09:20:42.994Z,9.42
2024-02-07T09:23:30.176Z,9.45
2024-02-07T09:26:17.321Z,9.43
2024-02-07T09:29:04.685Z,9.50
2024-02-07T09:31:52.020Z,9.53
2024-02-07T09:34:45.854Z,9.46
2024-02-07T09:37:33.218Z,9.55
2024-02-07T09:40:24.758Z,9.58
2024-02-07T09:43:12.140Z,9.54
2024-02-07T09:46:00.823Z,9.60
2024-02-07T09:48:51.256Z,9.63
2024-02-07T09:51:42.486Z,9.70
2024-02-07T09:54:29.937Z,9.76
2024-02-07T09:57:19.118Z,9.81
2024-02-07T10:00:08.695Z,9.79
2024-02-07T10:02:57.222Z,9.86
2024-02-07T10:05:52.115Z,9.92
2024-02-07T10:08:41.210Z,9.91
2024-02-07T10:11:31.253Z,9.97
2024-02-07T10:14:19.043Z,10.03
2024-02-07T10:17:06.683Z,10.15
2024-02-07T10:19:54.731Z,10.23
2024-02-07T10:22:43.053Z,10.30
2024-02-07T10:25:30.546Z,10.39
2024-02-07T10:28:18.436Z,10.46
2024-02-07T10:31:06.306Z,10.49
2024-02-07T10:33:55.638Z,10.42
2024-02-07T10:36:42.974Z,10.46
2024-02-07T10:39:30.356Z,10.59
2024-02-07T10:42:18.520Z,10.73
2024-02-07T10:45:11.710Z,10.82
2024-02-07T10:47:59.067Z,11.03
2024-02-07T10:50:46.962Z,11.18
2024-02-07T10:53:34.602Z,11.29
2024-02-07T10:56:23.434Z,11.36
2024-02-07T10:59:12.966Z,11.25
2024-02-07T11:02:01.440Z,11.23
2024-02-07T11:04:51.623Z,11.18
2024-02-07T11:07:39.315Z,11.16
2024-02-07T11:10:26.830Z,11.12
2024-02-07T11:13:14.537Z,11.13
2024-02-07T11:16:05.455Z,11.13
2024-02-07T11:18:54.822Z,11.19
2024-02-07T11:21:43.995Z,11.25
2024-02-07T11:24:31.973Z,11.31
2024-02-07T11:27:19.415Z,11.41
2024-02-07T11:30:12.052Z,11.45
2024-02-07T11:33:00.010Z,11.49
2024-02-07T11:35:47.536Z,11.52
2024-02-07T11:38:38.781Z,11.53
2024-02-07T11:41:27.317Z,11.62
2024-02-07T11:44:18.493Z,11.69
2024-02-07T11:47:05.958Z,11.76
2024-02-07T11:50:13.272Z,11.85
2024-02-07T11:53:03.206Z,11.88
2024-02-07T11:55:50.766Z,11.92
2024-02-07T11:58:39.078Z,11.98
2024-02-07T12:01:28.662Z,12.08
2024-02-07T12:04:20.405Z,12.14
2024-02-07T12:07:10.492Z,12.30
2024-02-07T12:09:57.819Z,12.44
2024-02-07T12:12:45.224Z,12.45
2024-02-07T12:15:36.774Z,12.67
2024-02-07T12:18:24.137Z,12.74
2024-02-07T12:21:11.647Z,12.86
2024-02-07T12:23:59.132Z,12.98
2024-02-07T12:26:46.384Z,12.94
2024-02-07T12:29:33.629Z,12.95
2024-02-07T12:32:21.804Z,12.95
2024-02-07T12:35:09.170Z,12.88
2024-02-07T12:38:01.253Z,12.90
2024-02-07T12:40:53.984Z,12.84
2024-02-07T12:43:41.908Z,12.61
2024-02-07T12:46:29.117Z,12.47
2024-02-07T12:49:16.493Z,12.30
2024-02-07T12:52:04.696Z,12.29
2024-02-07T12:54:52.109Z,12.27
2024-02-07T12:57:39.349Z,12.23
2024-02-07T13:00:26.574Z,12.17
2024-02-07T13:03:14.056Z,12.11
2024-02-07T13:06:01.487Z,12.15
2024-02-07T13:08:52.515Z,12.13
2024-02-07T13:11:39.851Z,12.12
2024-02-07T13:14:27.040Z,12.11
2024-02-07T13:17:16.110Z,12.19
2024-02-07T13:20:07.199Z,12.21
2024-02-07T13:22:54.554Z,12.14
2024-02-07T13:25:41.873Z,12.09
2024-02-07T13:28:29.206Z,12.12
2024-02-07T13:31:17.016Z,12.16
2024-02-07T13:34:06.263Z,12.13
2024-02-07T13:36:53.484Z,12.12
2024-02-07T13:39:40.689Z,12.12
2024-02-07T13:42:27.967Z,12.10
2024-02-07T13:45:16.139Z,12.02
2024-02-07T13:48:03.842Z,11.98
2024-02-07T13:50:51.324Z,12.00
2024-02-07T13:53:38.575Z,11.97
2024-02-07T13:56:25.929Z,12.10
2024-02-07T13:59:13.237Z,12.08
2024-02-07T14:02:02.391Z,12.18
2024-02-07T14:04:49.949Z,12.17
2024-02-07T14:07:37.224Z,12.18
2024-02-07T14:10:24.562Z,12.16
2024-02-07T14:13:11.870Z,12.16
2024-02-07T14:15:59.238Z,12.22
2024-02-07T14:18:47.260Z,12.19
2024-02-07T14:21:34.568Z,12.16
2024-02-07T14:24:21.869Z,12.23
2024-02-07T14:27:12.459Z,12.24
2024-02-07T14:29:59.833Z,12.23
2024-02-07T14:32:47.330Z,12.29
2024-02-07T14:35:34.792Z,12.29
2024-02-07T14:38:23.862Z,12.28
2024-02-07T14:41:11.233Z,12.22
2024-02-07T14:43:58.547Z,12.20
2024-02-07T14:46:45.919Z,12.13
2024-02-07T14:49:33.305Z,11.98
2024-02-07T14:52:21.745Z,11.86
2024-02-07T14:55:11.544Z,11.84
2024-02-07T14:57:59.078Z,11.80
2024-02-07T15:00:46.289Z,11.79
2024-02-07T15:03:33.753Z,11.70
2024-02-07T15:06:21.393Z,11.59
2024-02-07T15:09:08.685Z,11.51
2024-02-07T15:11:56.924Z,11.42
2024-02-07T15:14:44.168Z,11.31
2024-02-07T15:17:31.349Z,11.20
2024-02-07T15:20:18.682Z,11.11
2024-02-07T15:23:06.174Z,11.08
2024-02-07T15:25:53.514Z,11.00
2024-02-07T15:28:40.855Z,11.01
2024-02-07T15:31:28.021Z,10.96
2024-02-07T15:34:15.507Z,10.91
2024-02-07T15:37:03.025Z,10.89
2024-02-07T15:39:50.232Z,10.88
2024-02-07T15:42:37.564Z,10.83
2024-02-07T15:45:24.951Z,10.78
2024-02-07T15:48:13.098Z,10.77
2024-02-07T15:51:00.625Z,10.78
2024-02-07T15:53:47.939Z,10.74
2024-02-07T15:56:36.730Z,10.75
2024-02-07T15:59:23.874Z,10.74
2024-02-07T16:02:11.132Z,10.71
2024-02-07T16:04:58.690Z,10.64
2024-02-07T16:07:46.155Z,10.55
2024-02-07T16:10:33.675Z,10.50
2024-02-07T16:13:20.877Z,10.49
2024-02-07T16:16:08.076Z,10.43
2024-02-07T16:18:55.952Z,10.38
2024-02-07T16:21:43.170Z,10.31
2024-02-07T16:24:32.563Z,10.26
2024-02-07T16:27:21.810Z,10.22
2024-02-07T16:30:10.710Z,10.19
2024-02-07T16:32:59.221Z,10.13
2024-02-07T16:35:46.603Z,10.18
2024-02-07T16:38:33.857Z,10.11
2024-02-07T16:41:21.094Z,10.05
2024-02-07T16:44:09.096Z,10.00
2024-02-07T16:46:56.884Z,9.97
2024-02-07T16:49:44.324Z,9.95
2024-02-07T16:52:31.496Z,9.92
2024-02-07T16:55:18.755Z,9.90
2024-02-07T16:58:07.361Z,9.90
2024-02-07T17:00:54.606Z,9.87
2024-02-07T17:03:41.853Z,9.85
2024-02-07T17:06:30.013Z,9.79
2024-02-07T17:09:17.227Z,9.83
2024-02-07T17:12:05.009Z,9.78
2024-02-07T17:14:52.195Z,9.81
2024-02-07T17:17:39.485Z,9.76
2024-02-07T17:20:26.847Z,9.80
2024-02-07T17:23:14.195Z,9.78
2024-02-07T17:26:01.712Z,9.71
2024-02-07T17:28:49.214Z,9.71
2024-02-07T17:31:36.566Z,9.71
2024-02-07T17:34:23.982Z,9.70
2024-02-07T17:37:11.208Z,9.63
2024-02-07T17:39:58.461Z,9.67
2024-02-07T17:42:46.707Z,9.64
2024-02-07T17:45:33.933Z,9.70
2024-02-07T17:48:21.218Z,9.72
2024-02-07T17:51:09.028Z,9.69
2024-02-07T17:53:56.645Z,9.67
2024-02-07T17:56:44.037Z,9.75
2024-02-07T17:59:31.269Z,9.74
2024-02-07T18:02:18.584Z,9.70
2024-02-07T18:05:06.631Z,9.70
2024-02-07T18:07:56.908Z,9.70
2024-02-07T18:10:44.406Z,9.69
2024-02-07T18:13:33.088Z,9.68
2024-02-07T18:16:21.585Z,9.61
2024-02-07T18:19:08.980Z,9.61
2024-02-07T18:21:56.257Z,9.58
2024-02-07T18:24:43.555Z,9.57
2024-02-07T18:27:30.702Z,9.53
2024-02-07T18:30:19.785Z,9.49
2024-02-07T18:33:08.719Z,9.39
2024-02-07T18:35:55.967Z,9.40
2024-02-07T18:38:44.439Z,9.34
2024-02-07T18:41:31.833Z,9.32
2024-02-07T18:44:20.401Z,9.24
2024-02-07T18:47:07.694Z,9.23
2024-02-07T18:49:55.951Z,9.18
2024-02-07T18:52:43.294Z,9.17
2024-02-07T18:55:30.769Z,9.05
2024-02-07T18:58:19.497Z,9.06
2024-02-07T19:01:06.915Z,9.06
2024-02-07T19:03:55.056Z,8.97
2024-02-07T19:06:42.758Z,8.97
2024-02-07T19:09:31.026Z,8.92
2024-02-07T19:12:18.605Z,8.89
2024-02-07T19:15:06.746Z,8.84
2024-02-07T19:17:54.547Z,8.80
2024-02-07T19:20:43.237Z,8.77
2024-02-07T19:23:30.593Z,8.72
2024-02-07T19:26:17.803Z,8.66
2024-02-07T19:29:05.096Z,8.61
2024-02-07T19:31:52.544Z,8.58
2024-02-07T19:34:39.905Z,8.53
2024-02-07T19:37:28.718Z,8.48
2024-02-07T19:40:16.167Z,8.38
2024-02-07T19:43:03.804Z,8.30
2024-02-07T19:45:51.083Z,8.31
2024-02-07T19:48:38.366Z,8.27
2024-02-07T19:51:25.736Z,8.23
2024-02-07T19:54:12.965Z,8.21
2024-02-07T19:57:00.484Z,8.15
2024-02-07T19:59:47.691Z,8.07
2024-02-07T20:02:36.006Z,8.05
2024-02-07T20:05:25.468Z,8.01
2024-02-07T20:08:13.917Z,7.95
2024-02-07T20:11:01.367Z,7.93
2024-02-07T20:13:49.112Z,7.84
2024-02-07T20:16:36.613Z,7.86
2024-02-07T20:19:24.629Z,7.89
2024-02-07T20:22:12.006Z,7.90
2024-02-07T20:24:59.231Z,7.86
2024-02-07T20:27:46.485Z,7.84
2024-02-07T20:30:33.685Z,7.82
2024-02-07T20:33:20.920Z,7.78
2024-02-07T20:36:08.655Z,7.76
2024-02-07T20:38:56.191Z,7.74
2024-02-07T20:41:45.405Z,7.69
2024-02-07T20:44:32.876Z,7.66
2024-02-07T20:47:20.021Z,7.67
2024-02-07T20:50:08.136Z,7.65
2024-02-07T20:52:56.553Z,7.55
2024-02-07T20:55:45.611Z,7.55
2024-02-07T20:58:33.048Z,7.55
2024-02-07T21:01:20.879Z,7.47
2024-02-07T21:04:08.312Z,7.42
2024-02-07T21:06:55.731Z,7.29
2024-02-07T21:09:43.015Z,7.29
2024-02-07T21:12:30.192Z,7.26
2024-02-07T21:15:20.073Z,7.27
2024-02-07T21:18:07.664Z,7.25
2024-02-07T21:20:54.862Z,7.21
2024-02-07T21:23:42.898Z,7.19
2024-02-07T21:26:30.038Z,7.14
2024-02-07T21:29:18.760Z,7.14
2024-02-07T21:32:10.632Z,7.10
2024-02-07T21:34:58.080Z,7.01
2024-02-07T21:37:45.912Z,7.00
2024-02-07T21:40:33.190Z,6.95
2024-02-07T21:43:20.567Z,6.86
2024-02-07T21:46:09.028Z,6.89
2024-02-07T21:48:56.264Z,6.87
2024-02-07T21:51:43.582Z,6.86
2024-02-07T21:54:30.853Z,6.81
2024-02-07T21:57:18.920Z,6.76
2024-02-07T22:00:07.343Z,6.73
2024-02-07T22:02:54.618Z,6.70
2024-02-07T22:05:41.906Z,6.66
2024-02-07T22:08:29.185Z,6.57
2024-02-07T22:11:16.825Z,6.59
2024-02-07T22:14:07.131Z,6.51
2024-02-07T22:16:54.458Z,6.44
2024-02-07T22:19:43.445Z,6.36
2024-02-07T22:22:31.265Z,6.39
2024-02-07T22:25:18.572Z,6.37
2024-02-07T22:28:07.142Z,6.31
2024-02-07T22:30:54.410Z,6.35
2024-02-07T22:33:41.556Z,6.32
2024-02-07T22:36:28.802Z,6.38
2024-02-07T22:39:16.365Z,6.40
2024-02-07T22:42:06.258Z,6.41
2024-02-07T22:44:53.486Z,6.46
2024-02-07T22:47:40.955Z,6.44
2024-02-07T22:50:28.343Z,6.55
2024-02-07T22:53:15.603Z,6.57
2024-02-07T22:56:03.296Z,6.65
2024-02-07T22:58:50.595Z,6.65
2024-02-07T23:01:37.836Z,6.70
2024-02-07T23:04:25.116Z,6.70
2024-02-07T23:07:12.716Z,6.77
2024-02-07T23:09:59.856Z,6.75
2024-02-07T23:12:46.997Z,6.84
2024-02-07T23:15:34.143Z,6.88
2024-02-07T23:18:21.726Z,6.89
2024-02-07T23:21:08.947Z,6.84
2024-02-07T23:23:56.112Z,6.92
2024-02-07T23:26:45.972Z,6.89
2024-02-07T23:29:33.403Z,6.84
2024-02-07T23:32:20.735Z,6.86
2024-02-07T23:35:08.560Z,6.89
2024-02-07T23:37:55.796Z,6.84
2024-02-07T23:40:43.188Z,6.86
2024-02-07T23:43:30.411Z,6.81
2024-02-07T23:46:17.590Z,6.78
2024-02-07T23:49:04.924Z,6.74
2024-02-07T23:51:53.256Z,6.75
2024-02-07T23:54:40.414Z,6.68
2024-02-07T23:57:27.797Z,6.70
